AFR106 LFBO-LSGG
Flight info
| Callsign | AFR106 |
|---|---|
| Flight time | N/A |
| Altitude | 36000 |
| Route | MEN DCT NINUN DCT LATAM DCT ETREK DCT LUXAN G53 LTP Z16 BELUS |
| Aircraft | A359/H-SDE2E3GHIJ3J4J5LM1ORWXY/LB1D1 |
Departure
| Time | 2026-05-05 16:18 |
|---|---|
| Airport | Toulouse-Blagnac Airport (LFBO) |
Arrival
| Time | N/A |
|---|---|
| Airport | Geneva International Airport (LSGG) |
| Time | Latitude | Longitude | Altitude | Speed | Heading |
|---|---|---|---|---|---|
| 2026-05-05 15:50 | 43.62531 | 1.37481 | 501 ft | 0 kts | 141° |
| 2026-05-05 16:09 | 43.62541 | 1.37469 | 501 ft | 3 kts | 141° |
| 2026-05-05 16:09 | 43.62557 | 1.37452 | 501 ft | 3 kts | 141° |
| 2026-05-05 16:09 | 43.62573 | 1.37435 | 501 ft | 3 kts | 146° |
| 2026-05-05 16:09 | 43.62590 | 1.37421 | 501 ft | 3 kts | 166° |
| 2026-05-05 16:10 | 43.62604 | 1.37419 | 501 ft | 2 kts | 221° |
| 2026-05-05 16:10 | 43.62611 | 1.37430 | 501 ft | 2 kts | 233° |
| 2026-05-05 16:10 | 43.62623 | 1.37452 | 501 ft | 3 kts | 233° |
| 2026-05-05 16:10 | 43.62629 | 1.37462 | 501 ft | 0 kts | 233° |
| 2026-05-05 16:11 | 43.62628 | 1.37462 | 501 ft | 0 kts | 233° |
| 2026-05-05 16:12 | 43.62628 | 1.37461 | 501 ft | 0 kts | 233° |
| 2026-05-05 16:14 | 43.62609 | 1.37429 | 501 ft | 11 kts | 231° |
| 2026-05-05 16:15 | 43.62531 | 1.37349 | 501 ft | 16 kts | 174° |
| 2026-05-05 16:15 | 43.62230 | 1.37641 | 501 ft | 31 kts | 143° |
| 2026-05-05 16:16 | 43.61867 | 1.38018 | 500 ft | 25 kts | 143° |
| 2026-05-05 16:16 | 43.61624 | 1.38104 | 499 ft | 20 kts | 230° |
| 2026-05-05 16:17 | 43.61796 | 1.37781 | 489 ft | 66 kts | 323° |
| 2026-05-05 16:17 | 43.62396 | 1.37156 | 504 ft | 147 kts | 322° |
| 2026-05-05 16:18 | 43.64201 | 1.35214 | 2012 ft | 183 kts | 315° |
| 2026-05-05 16:18 | 43.65216 | 1.34039 | 2631 ft | 202 kts | 317° |
| 2026-05-05 16:18 | 43.67983 | 1.32052 | 3699 ft | 254 kts | 355° |
| 2026-05-05 16:19 | 43.69715 | 1.32725 | 4600 ft | 269 kts | 27° |
| 2026-05-05 16:19 | 43.71040 | 1.34589 | 5620 ft | 277 kts | 52° |
| 2026-05-05 16:19 | 43.73199 | 1.39104 | 7724 ft | 287 kts | 52° |
| 2026-05-05 16:20 | 43.75624 | 1.43610 | 9871 ft | 298 kts | 50° |
| 2026-05-05 16:20 | 43.78324 | 1.48361 | 11045 ft | 339 kts | 50° |
| 2026-05-05 16:21 | 43.81317 | 1.53639 | 12818 ft | 354 kts | 54° |
| 2026-05-05 16:22 | 43.83951 | 1.63331 | 15428 ft | 367 kts | 74° |
| 2026-05-05 16:22 | 43.85413 | 1.70176 | 17077 ft | 379 kts | 74° |
| 2026-05-05 16:23 | 43.86939 | 1.77259 | 18804 ft | 388 kts | 74° |
| 2026-05-05 16:23 | 43.87716 | 1.80867 | 19586 ft | 392 kts | 74° |
| 2026-05-05 16:23 | 43.89293 | 1.88194 | 21159 ft | 401 kts | 75° |
| 2026-05-05 16:24 | 43.90091 | 1.91913 | 21913 ft | 404 kts | 75° |
| 2026-05-05 16:24 | 43.90897 | 1.95670 | 22719 ft | 408 kts | 75° |
| 2026-05-05 16:24 | 43.93030 | 2.03010 | 24066 ft | 424 kts | 59° |
| 2026-05-05 16:25 | 43.94809 | 2.06325 | 24556 ft | 433 kts | 50° |
| 2026-05-05 16:25 | 43.98790 | 2.12782 | 25640 ft | 446 kts | 49° |
| 2026-05-05 16:25 | 44.00818 | 2.16068 | 26187 ft | 451 kts | 50° |
| 2026-05-05 16:26 | 44.04920 | 2.22760 | 27401 ft | 459 kts | 49° |
| 2026-05-05 16:26 | 44.09102 | 2.29618 | 28426 ft | 471 kts | 49° |
| 2026-05-05 16:27 | 44.11239 | 2.33131 | 28728 ft | 481 kts | 49° |
| 2026-05-05 16:27 | 44.13381 | 2.36658 | 29218 ft | 486 kts | 49° |
| 2026-05-05 16:27 | 44.15570 | 2.40267 | 29774 ft | 490 kts | 49° |
| 2026-05-05 16:27 | 44.17784 | 2.43921 | 30215 ft | 495 kts | 49° |
| 2026-05-05 16:28 | 44.20008 | 2.47597 | 30650 ft | 499 kts | 49° |
| 2026-05-05 16:28 | 44.22247 | 2.51304 | 30893 ft | 499 kts | 49° |
| 2026-05-05 16:28 | 44.26708 | 2.58702 | 30936 ft | 499 kts | 49° |
| 2026-05-05 16:29 | 44.31141 | 2.66073 | 30938 ft | 499 kts | 50° |
| 2026-05-05 16:29 | 44.35616 | 2.73537 | 30934 ft | 505 kts | 49° |
| 2026-05-05 16:30 | 44.40132 | 2.81087 | 30935 ft | 506 kts | 49° |
| 2026-05-05 16:30 | 44.44630 | 2.88625 | 30928 ft | 503 kts | 49° |
| 2026-05-05 16:31 | 44.49106 | 2.96146 | 30928 ft | 502 kts | 49° |
| 2026-05-05 16:31 | 44.53543 | 3.03622 | 30918 ft | 503 kts | 49° |
| 2026-05-05 16:32 | 44.58020 | 3.11187 | 30924 ft | 507 kts | 49° |
| 2026-05-05 16:32 | 44.62189 | 3.19111 | 30908 ft | 503 kts | 58° |
| 2026-05-05 16:33 | 44.65729 | 3.27560 | 30894 ft | 501 kts | 61° |
| 2026-05-05 16:33 | 44.69116 | 3.36105 | 30893 ft | 501 kts | 61° |
| 2026-05-05 16:34 | 44.72474 | 3.44608 | 30885 ft | 501 kts | 61° |
| 2026-05-05 16:34 | 44.75864 | 3.53155 | 30883 ft | 500 kts | 61° |
| 2026-05-05 16:35 | 44.79260 | 3.61708 | 30895 ft | 500 kts | 61° |
| 2026-05-05 16:35 | 44.82650 | 3.70273 | 30894 ft | 500 kts | 61° |
| 2026-05-05 16:36 | 44.86029 | 3.78835 | 30881 ft | 500 kts | 61° |
| 2026-05-05 16:36 | 44.89389 | 3.87379 | 30882 ft | 504 kts | 61° |